CheckWX is a tool to help pilots better visualize weather data.  It is not intended as a substitute for an official pre-flight weather briefing.

23:12:57 UTC

6L4 METAR
Logan County Airport
Logan, West Virginia, USA
Current

18 mins ago

K6L4 242255Z AUTO 02003KT 10SM FEW042 FEW055 SCT065 26/22 A3015 RMK AO2
Observed
May-24 @ 22:55 UTC
Wind
  • 020° at 3 KTS
Visibility
10 SM
Flight Rules
VFR
Cloud Levels
  • Few at 4,200' AGL
  • Few at 5,500' AGL
  • Scattered at 6,500' AGL
Temperature
26°C / 79°F
Dewpoint
22°C / 72°F
Humidity
79%
Altimeter
30.15" Hg
Pressure
1021.02 hPa
Previous

38 mins ago

K6L4 242235Z AUTO 01004KT 10SM CLR 27/22 A3015 RMK AO2
Observed
May-24 @ 22:35 UTC
Wind
  • 010° at 4 KTS
Visibility
10 SM
Flight Rules
VFR
Cloud Levels
  • Clear skies
Temperature
27°C / 81°F
Dewpoint
22°C / 72°F
Heat Index
29°C / 85°F
Humidity
74%
Altimeter
30.15" Hg
Pressure
1021.02 hPa
Previous

58 mins ago

K6L4 242215Z AUTO 03004KT 10SM FEW048 FEW060 27/22 A3015 RMK AO2
Observed
May-24 @ 22:15 UTC
Wind
  • 030° at 4 KTS
Visibility
10 SM
Flight Rules
VFR
Cloud Levels
  • Few at 4,800' AGL
  • Few at 6,000' AGL
Temperature
27°C / 81°F
Dewpoint
22°C / 72°F
Heat Index
29°C / 85°F
Humidity
74%
Altimeter
30.15" Hg
Pressure
1021.02 hPa